Time;durP1;ratioP1;P1;durP2;ratioP2;P2;SDS_P1;SDS_P2;PMS_P1;PMS_P2;Temp;Humidity;BMP_temperature;BMP_pressure;BME280_temperature;BME280_humidity;BME280_pressure;Samples;Min_cycle;Max_cycle;Signal;HPM_P1;HPM_P2
2023/08/28 00:02:37;;;;;;;1.13;0.47;;;;;;;22.71;60.73;96279.84;10417050;28;20044;-29
2023/08/28 00:07:37;;;;;;;1.08;0.70;;;;;;;22.73;60.61;96285.75;10418233;28;20459;-29
2023/08/28 00:12:40;;;;;;;0.93;0.53;;;;;;;22.72;60.67;96276.41;10421293;28;20051;-29
2023/08/28 00:17:41;;;;;;;1.85;0.60;;;;;;;22.72;60.60;96286.63;10409854;28;20057;-29
2023/08/28 00:22:42;;;;;;;1.20;0.60;;;;;;;22.71;60.68;96269.63;10416518;28;20443;-29
2023/08/28 00:27:43;;;;;;;1.55;0.80;;;;;;;22.71;60.71;96251.75;10414727;28;20175;-29
2023/08/28 00:32:44;;;;;;;3.10;0.60;;;;;;;22.72;60.67;96256.00;10418701;28;20151;-29
2023/08/28 00:37:45;;;;;;;1.13;0.83;;;;;;;22.73;60.64;96254.28;10412199;28;20037;-29
2023/08/28 00:42:45;;;;;;;0.40;0.40;;;;;;;22.71;60.51;96259.41;10403044;28;20431;-28
2023/08/28 00:47:46;;;;;;;0.20;0.20;;;;;;;22.71;60.68;96259.41;10411597;28;20029;-29
2023/08/28 00:52:47;;;;;;;0.47;0.35;;;;;;;22.71;60.65;96267.06;10410395;28;20508;-29
2023/08/28 00:57:48;;;;;;;0.85;0.52;;;;;;;22.71;60.70;96264.53;10409456;28;20076;-29
2023/08/28 01:02:49;;;;;;;2.50;0.57;;;;;;;22.71;60.73;96254.31;10409190;28;20075;-29
2023/08/28 01:08:02;;;;;;;1.00;0.50;;;;;;;22.71;60.58;96271.31;10414225;28;20192;-29
2023/08/28 01:13:31;;;;;;;0.60;0.38;;;;;;;22.68;60.67;96246.75;10410474;28;20578;-29
2023/08/28 01:18:34;;;;;;;0.73;0.40;;;;;;;22.70;60.67;96246.69;10394945;28;20025;-29
2023/08/28 01:23:57;;;;;;;0.22;0.22;;;;;;;22.71;60.62;96253.47;10410544;28;20072;-29
2023/08/28 01:28:57;;;;;;;0.60;0.57;;;;;;;22.70;60.69;96237.31;10409462;28;20545;-29
2023/08/28 01:33:58;;;;;;;0.50;0.40;;;;;;;22.70;60.64;96234.78;10409759;28;20029;-29
2023/08/28 01:39:04;;;;;;;0.30;0.30;;;;;;;22.70;60.67;96232.22;10419589;28;20717;-29
2023/08/28 01:44:07;;;;;;;2.13;0.47;;;;;;;22.70;60.55;96222.03;10408669;28;20397;-29
2023/08/28 01:49:08;;;;;;;0.40;0.40;;;;;;;22.67;60.73;96211.03;10419063;28;20059;-30
2023/08/28 01:54:08;;;;;;;1.20;0.50;;;;;;;22.68;60.61;96190.59;10408625;28;20038;-29
2023/08/28 01:59:09;;;;;;;0.30;0.30;;;;;;;22.68;60.54;96182.94;10411270;28;20044;-29
2023/08/28 02:04:10;;;;;;;0.30;0.30;;;;;;;22.68;60.65;96170.19;10407866;28;20037;-29
2023/08/28 02:09:13;;;;;;;0.40;0.30;;;;;;;22.69;60.63;96168.44;10407950;28;20053;-29
2023/08/28 02:14:13;;;;;;;0.52;0.40;;;;;;;22.66;60.62;96179.56;10407744;28;20446;-29
2023/08/28 02:19:14;;;;;;;0.27;0.27;;;;;;;22.67;60.65;96176.16;10405747;28;20091;-28
2023/08/28 02:24:14;;;;;;;0.77;0.40;;;;;;;22.68;60.59;96187.19;10406179;28;20040;-29
2023/08/28 02:29:14;;;;;;;0.87;0.30;;;;;;;22.67;60.32;96191.47;10417389;28;20033;-29
2023/08/28 02:34:15;;;;;;;0.30;0.30;;;;;;;22.67;60.57;96196.59;10411256;28;20284;-31
2023/08/28 02:39:15;;;;;;;0.23;0.23;;;;;;;22.68;60.58;96193.16;10408225;28;20090;-29
2023/08/28 02:44:15;;;;;;;0.30;0.30;;;;;;;22.67;60.54;96185.53;10408510;28;20284;-29
2023/08/28 02:49:16;;;;;;;0.57;0.50;;;;;;;22.64;60.50;96163.47;10407581;28;20037;-29
2023/08/28 02:54:16;;;;;;;1.57;0.20;;;;;;;22.67;60.55;96160.84;10407979;28;20406;-30
2023/08/28 02:59:17;;;;;;;0.40;0.30;;;;;;;22.67;60.61;96163.41;10407153;28;20442;-29
2023/08/28 03:04:17;;;;;;;0.70;0.40;;;;;;;22.67;60.66;96160.84;10401283;28;20288;-29
2023/08/28 03:09:17;;;;;;;1.00;0.80;;;;;;;22.67;60.47;96148.09;10407918;28;20685;-29
2023/08/28 03:14:18;;;;;;;1.17;0.37;;;;;;;22.66;60.53;96131.09;10405367;28;20523;-29
2023/08/28 03:19:18;;;;;;;0.40;0.30;;;;;;;22.66;60.71;96137.91;10411990;28;20040;-29
2023/08/28 03:24:18;;;;;;;0.90;0.40;;;;;;;22.65;60.41;96129.41;10405178;28;20033;-29
2023/08/28 03:29:19;;;;;;;1.97;0.40;;;;;;;22.66;60.54;96132.81;10408986;28;20083;-29
2023/08/28 03:34:19;;;;;;;0.37;0.27;;;;;;;22.65;60.58;96133.69;10409459;28;20075;-29
2023/08/28 03:39:20;;;;;;;0.20;0.20;;;;;;;22.65;60.45;96141.34;10413078;28;20046;-29
2023/08/28 03:44:20;;;;;;;0.40;0.40;;;;;;;22.65;60.70;96136.25;10421978;28;20058;-29
2023/08/28 03:49:20;;;;;;;0.30;0.30;;;;;;;22.57;60.55;96121.13;10412222;28;20034;-29
2023/08/28 03:54:21;;;;;;;2.27;0.30;;;;;;;22.64;60.59;96135.41;10411769;28;20026;-29
2023/08/28 03:59:23;;;;;;;1.45;0.40;;;;;;;22.66;60.47;96125.16;10415108;28;20112;-29
2023/08/28 04:04:23;;;;;;;0.50;0.50;;;;;;;22.66;60.61;96117.50;10411606;28;20041;-28
2023/08/28 04:09:24;;;;;;;0.80;0.32;;;;;;;22.64;60.31;96099.66;10412143;28;20056;-29
2023/08/28 04:14:27;;;;;;;0.45;0.45;;;;;;;22.71;60.47;96102.88;10410512;28;20061;-29
2023/08/28 04:19:27;;;;;;;0.40;0.40;;;;;;;22.73;60.31;96084.13;10410687;28;20569;-29
2023/08/28 04:24:28;;;;;;;0.90;0.70;;;;;;;22.76;60.48;96083.19;10414553;28;20041;-29
2023/08/28 04:29:28;;;;;;;7.47;1.80;;;;;;;22.63;60.90;96092.91;10411243;28;20034;-29
2023/08/28 04:34:28;;;;;;;3.83;1.17;;;;;;;22.56;60.42;96088.81;10405320;28;20041;-29
2023/08/28 04:39:29;;;;;;;2.00;0.93;;;;;;;22.50;60.31;96106.84;10410696;28;20060;-29
2023/08/28 04:44:29;;;;;;;3.23;1.00;;;;;;;22.45;59.84;96111.22;10409116;28;20044;-29
2023/08/28 04:49:29;;;;;;;2.10;0.87;;;;;;;22.43;59.60;96115.53;10409268;28;20655;-29
2023/08/28 04:54:30;;;;;;;3.43;1.00;;;;;;;22.38;59.51;96117.31;10410883;28;20044;-28
2023/08/28 04:59:30;;;;;;;2.93;0.80;;;;;;;22.40;59.45;96110.47;10409595;28;20033;-29
2023/08/28 05:04:31;;;;;;;1.83;0.90;;;;;;;22.40;59.23;96109.66;10412447;28;20216;-29
2023/08/28 05:09:31;;;;;;;1.17;1.00;;;;;;;22.28;59.04;96108.22;10409936;28;20124;-29
2023/08/28 05:14:32;;;;;;;1.23;0.90;;;;;;;22.19;59.40;96103.34;10405857;28;20340;-29
2023/08/28 05:19:32;;;;;;;3.40;0.90;;;;;;;22.20;59.00;96096.53;10410686;28;20272;-29
2023/08/28 05:24:33;;;;;;;1.43;0.77;;;;;;;22.17;58.96;96082.16;10411592;28;20563;-29
2023/08/28 05:29:33;;;;;;;3.50;0.77;;;;;;;22.15;59.00;96067.78;10408749;28;20047;-29
2023/08/28 05:34:33;;;;;;;1.47;0.97;;;;;;;22.12;58.77;96089.06;10410240;28;20037;-29
2023/08/28 05:39:34;;;;;;;0.68;0.68;;;;;;;22.11;58.29;96100.16;10416798;28;20338;-29
2023/08/28 05:44:34;;;;;;;3.00;0.80;;;;;;;22.08;58.14;96107.84;10409430;28;20032;-29
2023/08/28 05:49:35;;;;;;;1.83;1.13;;;;;;;22.50;59.23;96095.81;10400949;28;20033;-29
2023/08/28 05:54:36;;;;;;;2.88;0.80;;;;;;;22.41;56.37;96080.75;10408226;28;20021;-29
2023/08/28 05:59:37;;;;;;;1.57;0.77;;;;;;;22.37;57.24;96077.41;10419193;28;20506;-29
2023/08/28 06:04:38;;;;;;;5.18;1.30;;;;;;;22.41;56.48;96060.34;10405217;28;20038;-29
2023/08/28 06:09:41;;;;;;;4.20;0.73;;;;;;;22.22;56.10;96070.13;10415664;28;20072;-29
2023/08/28 06:14:42;;;;;;;3.65;0.93;;;;;;;22.18;56.27;96068.53;10417659;28;20021;-29
2023/08/28 06:19:42;;;;;;;1.17;0.70;;;;;;;22.11;56.64;96068.72;10430581;28;20029;-29
2023/08/28 06:24:43;;;;;;;6.05;0.98;;;;;;;22.31;56.96;96057.13;10419828;28;20041;-30
2023/08/28 06:29:43;;;;;;;2.33;0.90;;;;;;;22.24;56.10;96045.41;10432468;28;20033;-29
2023/08/28 06:34:44;;;;;;;2.13;0.80;;;;;;;22.17;56.44;96048.16;10421068;28;20781;-30
2023/08/28 06:39:44;;;;;;;3.77;1.10;;;;;;;22.17;56.89;96083.88;10425866;28;20357;-29
2023/08/28 06:44:44;;;;;;;3.50;0.67;;;;;;;22.13;56.67;96087.38;10426213;28;20033;-29
2023/08/28 06:49:45;;;;;;;1.17;0.60;;;;;;;22.12;56.66;96073.78;10426596;28;20052;-29
2023/08/28 06:54:45;;;;;;;5.43;1.10;;;;;;;22.05;56.39;96061.22;10414156;28;20040;-31
2023/08/28 06:59:46;;;;;;;3.00;0.80;;;;;;;22.12;56.28;96058.47;10417934;28;20040;-29
2023/08/28 07:04:46;;;;;;;7.22;1.10;;;;;;;22.18;56.31;96067.69;10420375;28;20043;-29
2023/08/28 07:09:47;;;;;;;6.90;1.13;;;;;;;22.20;56.38;96056.59;10422897;28;20025;-29
2023/08/28 07:15:25;;;;;;;1.50;1.02;;;;;;;22.14;56.47;96059.28;10409850;28;20028;-29
2023/08/28 07:20:25;;;;;;;2.25;1.23;;;;;;;22.25;57.18;96053.91;10420273;28;20025;-29
2023/08/28 07:25:27;;;;;;;7.32;0.75;;;;;;;22.28;56.19;96052.13;10415739;28;20279;-29
2023/08/28 07:30:28;;;;;;;4.60;0.93;;;;;;;22.12;56.32;96043.19;10407905;28;20029;-29
2023/08/28 07:35:34;;;;;;;3.57;0.90;;;;;;;22.04;57.09;96024.69;10406647;28;20034;-29
2023/08/28 07:40:35;;;;;;;3.10;1.00;;;;;;;22.06;56.45;96005.09;10406134;28;20276;-29
2023/08/28 07:45:35;;;;;;;3.53;1.02;;;;;;;22.07;56.27;96031.44;10405322;28;20041;-28
2023/08/28 07:50:35;;;;;;;3.50;1.03;;;;;;;22.06;56.32;96038.22;10407638;28;20037;-29
2023/08/28 07:55:37;;;;;;;1.97;1.07;;;;;;;22.08;56.32;96046.66;10409190;28;20104;-30
2023/08/28 08:00:38;;;;;;;1.70;1.00;;;;;;;22.05;56.38;96041.66;10397733;28;20407;-28
2023/08/28 08:05:38;;;;;;;2.25;1.10;;;;;;;22.04;56.33;96060.38;10407028;28;20061;-31
2023/08/28 08:10:39;;;;;;;3.00;1.00;;;;;;;22.03;56.18;96057.84;10405325;28;20061;-29
2023/08/28 08:15:39;;;;;;;7.83;1.23;;;;;;;22.05;56.38;96051.03;10405275;28;20037;-29
2023/08/28 08:20:40;;;;;;;3.20;1.03;;;;;;;22.05;56.32;96056.94;10425821;28;20290;-29
2023/08/28 08:25:40;;;;;;;1.60;1.00;;;;;;;22.05;56.09;96059.50;10413769;28;20304;-29
2023/08/28 08:30:41;;;;;;;2.40;0.97;;;;;;;22.03;56.35;96058.72;10423369;28;20052;-29
2023/08/28 08:35:41;;;;;;;3.35;0.95;;;;;;;22.10;56.24;96059.38;10406899;28;20039;-29
2023/08/28 08:40:42;;;;;;;6.67;1.30;;;;;;;22.10;56.49;96065.34;10411930;28;20039;-29
2023/08/28 08:45:44;;;;;;;7.93;1.45;;;;;;;22.11;56.65;96061.91;10424438;28;20033;-29
2023/08/28 08:50:47;;;;;;;1.50;0.82;;;;;;;22.09;56.88;96065.38;10420022;28;20025;-29
2023/08/28 08:55:49;;;;;;;3.88;1.30;;;;;;;22.18;56.76;96068.53;10427049;28;20075;-29
2023/08/28 09:00:50;;;;;;;2.75;1.38;;;;;;;22.15;56.90;96068.59;10420242;28;20040;-29
2023/08/28 09:05:52;;;;;;;5.22;1.10;;;;;;;22.18;57.10;96076.19;10418268;28;20479;-29
2023/08/28 09:10:57;;;;;;;9.02;1.50;;;;;;;22.21;57.22;96070.16;10404395;28;20029;-29
2023/08/28 09:15:58;;;;;;;7.17;1.63;;;;;;;22.15;57.29;96063.50;10422876;28;20522;-29
2023/08/28 09:21:12;;;;;;;2.47;1.20;;;;;;;22.22;57.21;96065.03;10409815;28;20201;-29
2023/08/28 09:26:14;;;;;;;2.83;1.10;;;;;;;22.08;57.24;96059.41;10426607;28;20083;-29
2023/08/28 09:31:44;;;;;;;2.35;1.27;;;;;;;22.11;56.89;96051.72;10404800;28;20033;-29
2023/08/28 09:36:44;;;;;;;2.28;1.10;;;;;;;22.15;57.09;96055.03;10414300;28;20091;-29
2023/08/28 09:41:49;;;;;;;10.70;3.80;;;;;;;22.16;57.07;96039.66;10427847;28;20029;-29
2023/08/28 09:46:49;;;;;;;6.22;2.35;;;;;;;22.12;56.74;96033.00;10423685;28;20041;-29
2023/08/28 09:51:50;;;;;;;5.85;1.63;;;;;;;22.13;56.80;96021.91;10419444;28;20037;-29
2023/08/28 09:56:52;;;;;;;6.47;1.55;;;;;;;22.15;57.57;96026.97;10409844;28;20018;-28
2023/08/28 10:01:52;;;;;;;3.83;1.38;;;;;;;22.17;57.21;96031.16;10412301;28;20121;-30
2023/08/28 10:06:55;;;;;;;4.82;1.52;;;;;;;22.19;57.35;96019.22;10425921;28;20033;-27
2023/08/28 10:11:56;;;;;;;5.68;1.55;;;;;;;22.21;57.40;96014.06;10409847;28;20116;-29
2023/08/28 10:17:03;;;;;;;25.15;2.50;;;;;;;22.14;57.88;96021.03;10410712;28;20033;-29
2023/08/28 10:22:06;;;;;;;4.32;1.85;;;;;;;21.96;58.67;96016.41;10416202;28;20045;-28
2023/08/28 10:27:08;;;;;;;4.35;2.08;;;;;;;22.10;58.52;96019.44;10404161;28;20510;-29
2023/08/28 10:32:10;;;;;;;3.58;1.60;;;;;;;22.12;57.73;96019.38;10423570;28;20034;-29
2023/08/28 10:37:13;;;;;;;2.88;1.05;;;;;;;22.18;57.33;96027.75;10427640;28;20029;-29
2023/08/28 10:42:18;;;;;;;6.03;1.58;;;;;;;22.20;57.33;96020.88;10414060;28;20477;-29
2023/08/28 10:47:19;;;;;;;3.13;1.17;;;;;;;22.19;57.67;96019.22;10408887;28;20059;-30
2023/08/28 10:52:20;;;;;;;3.88;1.50;;;;;;;22.18;57.31;96022.66;10404277;28;20037;-29
2023/08/28 10:57:25;;;;;;;3.17;1.77;;;;;;;22.16;57.27;96021.00;10394985;28;20514;-29
2023/08/28 11:03:14;;;;;;;3.40;1.45;;;;;;;22.13;57.20;96019.34;10414996;28;20571;-29
2023/08/28 11:08:15;;;;;;;5.68;1.35;;;;;;;22.09;57.19;96017.78;10406003;28;20042;-29
2023/08/28 11:13:21;;;;;;;3.55;1.60;;;;;;;22.10;57.26;96029.66;10401806;28;20107;-28
2023/08/28 11:18:28;;;;;;;;;;;;;;;22.10;57.08;96024.53;10407675;28;20506;-29
2023/08/28 11:23:34;;;;;;;3.17;1.45;;;;;;;22.10;57.05;96022.00;10411175;28;19921;-28
2023/08/28 11:28:48;;;;;;;1.50;1.03;;;;;;;22.08;57.38;96016.06;10414285;28;20109;-29
2023/08/28 11:33:49;;;;;;;4.15;1.65;;;;;;;22.18;57.53;96012.44;10403439;28;20249;-29
2023/08/28 11:38:49;;;;;;;13.38;1.70;;;;;;;22.16;57.82;96019.28;10406728;28;20116;-30
2023/08/28 11:43:50;;;;;;;3.73;1.60;;;;;;;22.12;57.71;96017.69;10416780;28;20025;-29
2023/08/28 11:48:50;;;;;;;3.03;1.57;;;;;;;22.11;58.04;96016.03;10417350;28;20083;-28
2023/08/28 11:53:50;;;;;;;14.50;1.90;;;;;;;22.17;58.52;96015.88;10414197;28;20039;-29
2023/08/28 11:58:53;;;;;;;4.13;1.70;;;;;;;22.20;59.78;96014.94;10411932;28;20036;-29
2023/08/28 12:04:01;;;;;;;2.75;1.27;;;;;;;22.34;59.27;96003.53;10422129;28;20033;-30
2023/08/28 12:09:04;;;;;;;7.78;2.33;;;;;;;22.36;58.87;96001.75;10411926;28;20507;-29
2023/08/28 12:14:15;;;;;;;8.70;1.92;;;;;;;22.46;59.03;96002.34;10411531;28;20038;-29
2023/08/28 12:19:22;;;;;;;8.48;3.33;;;;;;;22.49;59.44;96008.22;10414387;28;20033;-29
2023/08/28 12:24:23;;;;;;;10.88;3.15;;;;;;;22.56;59.44;96003.81;10418964;28;20067;-29
2023/08/28 12:29:25;;;;;;;11.48;2.63;;;;;;;22.62;59.32;96011.28;10410814;28;20068;-29
2023/08/28 12:34:30;;;;;;;13.43;2.65;;;;;;;22.68;58.88;96003.47;10413580;28;20033;-30
2023/08/28 12:39:31;;;;;;;9.95;2.58;;;;;;;22.75;58.70;96004.97;10410459;28;20053;-31
2023/08/28 12:44:31;;;;;;;9.57;2.42;;;;;;;22.78;58.40;96012.53;10413133;28;20532;-29
2023/08/28 12:49:32;;;;;;;7.50;2.07;;;;;;;22.85;58.47;96012.34;10415505;28;20061;-29
2023/08/28 12:54:32;;;;;;;10.77;2.30;;;;;;;22.88;58.80;96017.34;10418459;28;20418;-29
2023/08/28 12:59:33;;;;;;;10.77;1.80;;;;;;;22.98;58.34;96018.75;10409399;28;20026;-29
2023/08/28 13:04:33;;;;;;;10.00;2.38;;;;;;;23.02;57.92;96025.44;10412292;28;20037;-29
2023/08/28 13:09:34;;;;;;;14.00;2.00;;;;;;;23.02;58.52;96027.16;10408328;28;20048;-29
2023/08/28 13:14:35;;;;;;;7.17;1.70;;;;;;;23.06;58.01;96028.75;10410543;28;20040;-29
2023/08/28 13:19:35;;;;;;;5.90;1.95;;;;;;;23.11;57.47;96035.41;10410808;28;20061;-28
2023/08/28 13:24:36;;;;;;;5.03;1.52;;;;;;;23.05;57.94;96037.28;10419003;28;20468;-29
2023/08/28 13:29:36;;;;;;;4.80;1.60;;;;;;;22.95;58.45;96039.28;10404437;28;20404;-28
2023/08/28 13:34:36;;;;;;;4.27;1.40;;;;;;;22.89;58.29;96041.97;10411269;28;20033;-28
2023/08/28 13:39:38;;;;;;;3.83;1.50;;;;;;;22.84;58.35;96046.41;10409642;28;20041;-29
2023/08/28 13:44:39;;;;;;;2.80;1.48;;;;;;;22.80;58.37;96047.34;10407061;28;20321;-29
2023/08/28 13:49:40;;;;;;;4.00;1.50;;;;;;;22.78;58.29;96048.25;10418182;28;20087;-29
2023/08/28 13:54:40;;;;;;;4.40;1.30;;;;;;;22.69;57.86;96041.72;10403282;28;20514;-29
2023/08/28 13:59:40;;;;;;;4.10;1.80;;;;;;;22.72;58.31;96045.91;10410396;28;20484;-28
2023/08/28 14:04:41;;;;;;;2.00;1.47;;;;;;;22.72;58.38;96056.09;10406271;28;20413;-29
2023/08/28 14:09:41;;;;;;;3.33;1.40;;;;;;;22.69;58.11;96041.72;10407315;28;20120;-29
2023/08/28 14:14:41;;;;;;;1.77;0.97;;;;;;;22.68;58.41;96045.16;10409380;28;20297;-28
2023/08/28 14:19:42;;;;;;;2.23;1.57;;;;;;;22.68;58.30;96065.56;10407497;28;20068;-29
2023/08/28 14:24:42;;;;;;;2.13;1.17;;;;;;;22.64;58.12;96068.22;10410203;28;20033;-29
2023/08/28 14:29:44;;;;;;;1.33;0.80;;;;;;;22.59;57.49;96060.69;10403115;28;20131;-29
2023/08/28 14:34:44;;;;;;;1.75;1.00;;;;;;;22.46;56.94;96064.44;10404828;28;20474;-29
2023/08/28 14:39:44;;;;;;;1.23;0.80;;;;;;;22.33;56.67;96062.22;10402711;28;20033;-29
2023/08/28 14:44:45;;;;;;;2.27;0.80;;;;;;;22.27;56.58;96063.22;10404347;28;20033;-29
2023/08/28 14:49:45;;;;;;;3.67;0.90;;;;;;;22.21;56.62;96062.50;10405467;28;20404;-29
2023/08/28 14:54:45;;;;;;;2.80;0.82;;;;;;;22.18;56.62;96060.03;10407477;28;20057;-29
2023/08/28 14:59:46;;;;;;;3.67;0.87;;;;;;;22.14;56.90;96066.91;10404443;28;20045;-27
2023/08/28 15:04:49;;;;;;;2.90;0.98;;;;;;;22.24;56.80;96062.44;10408248;28;20032;-29
2023/08/28 15:09:49;;;;;;;3.08;0.90;;;;;;;22.20;56.58;96061.69;10426858;28;20036;-29
2023/08/28 15:14:50;;;;;;;1.27;1.00;;;;;;;22.20;56.62;96066.78;10403311;28;20029;-28
2023/08/28 15:19:50;;;;;;;1.10;0.77;;;;;;;22.18;56.69;96080.44;10429730;28;20291;-29
2023/08/28 15:24:51;;;;;;;3.15;1.00;;;;;;;22.12;56.48;96083.97;10429906;28;20291;-30
2023/08/28 15:29:54;;;;;;;0.83;0.73;;;;;;;22.10;56.20;96095.94;10432984;28;20029;-29
2023/08/28 15:34:54;;;;;;;2.78;1.00;;;;;;;22.08;56.67;96104.47;10426661;28;20276;-29
2023/08/28 15:39:55;;;;;;;1.40;0.90;;;;;;;22.22;57.32;96098.16;10425992;28;20036;-30
2023/08/28 15:44:55;;;;;;;4.87;1.10;;;;;;;22.11;57.11;96107.81;10438326;28;20039;-29
2023/08/28 15:49:56;;;;;;;1.77;1.20;;;;;;;22.07;57.31;96111.28;10422565;28;20283;-29
2023/08/28 15:54:57;;;;;;;4.85;1.25;;;;;;;22.04;57.04;96111.38;10422891;28;20033;-29
2023/08/28 15:59:57;;;;;;;3.63;1.50;;;;;;;22.03;57.16;96114.78;10413524;28;20488;-29
2023/08/28 16:05:00;;;;;;;9.10;1.90;;;;;;;22.24;59.77;96114.25;10414439;28;20380;-29
2023/08/28 16:10:01;;;;;;;16.67;4.10;;;;;;;22.18;58.73;96114.44;10412927;28;20034;-30
2023/08/28 16:15:01;;;;;;;7.15;3.50;;;;;;;22.05;58.02;96122.41;10408740;28;20462;-28
2023/08/28 16:20:01;;;;;;;7.23;3.27;;;;;;;22.01;57.70;96121.66;10414227;28;20108;-29
2023/08/28 16:25:02;;;;;;;6.72;2.13;;;;;;;22.02;57.56;96110.56;10406448;28;20155;-29
2023/08/28 16:30:03;;;;;;;6.77;2.17;;;;;;;22.07;57.40;96118.09;10419251;28;20060;-29
2023/08/28 16:35:04;;;;;;;7.88;2.83;;;;;;;22.10;57.37;96116.31;10412580;28;20295;-29
2023/08/28 16:40:05;;;;;;;10.15;2.75;;;;;;;22.22;58.48;96110.09;10413551;28;20468;-29
2023/08/28 16:45:06;;;;;;;12.85;2.90;;;;;;;22.30;58.99;96106.47;10403792;28;20030;-29
2023/08/28 16:50:07;;;;;;;6.10;2.13;;;;;;;22.33;58.17;96108.13;10412943;28;20037;-29
2023/08/28 16:55:07;;;;;;;3.50;1.88;;;;;;;22.31;57.89;96099.69;10420236;28;20041;-29
2023/08/28 17:00:08;;;;;;;3.22;1.80;;;;;;;22.30;57.52;96098.81;10406325;28;20037;-29
2023/08/28 17:05:09;;;;;;;5.25;1.80;;;;;;;22.31;57.72;96112.44;10418680;28;20129;-28
2023/08/28 17:10:09;;;;;;;5.97;1.80;;;;;;;22.28;57.31;96109.94;10409042;28;20044;-29
2023/08/28 17:15:12;;;;;;;2.40;1.70;;;;;;;22.24;57.38;96110.91;10422911;28;20399;-29
2023/08/28 17:20:12;;;;;;;3.35;1.90;;;;;;;22.21;57.09;96109.25;10424132;28;20503;-29
2023/08/28 17:25:13;;;;;;;3.00;1.63;;;;;;;22.18;56.96;96116.13;10416135;28;20041;-29
2023/08/28 17:30:13;;;;;;;2.97;1.50;;;;;;;22.20;56.81;96122.88;10411732;28;20060;-29
2023/08/28 17:35:14;;;;;;;6.50;2.38;;;;;;;22.13;57.54;96120.53;10404677;28;20044;-29
2023/08/28 17:40:15;;;;;;;4.60;1.30;;;;;;;22.23;57.30;96127.88;10410557;28;20039;-29
2023/08/28 17:45:15;;;;;;;2.75;1.17;;;;;;;22.27;57.49;96144.81;10408684;28;20038;-29
2023/08/28 17:50:15;;;;;;;13.10;1.90;;;;;;;22.39;57.32;96141.94;10404066;28;20136;-29
2023/08/28 17:55:16;;;;;;;7.82;2.25;;;;;;;22.36;57.58;96144.59;10409905;28;20291;-29
2023/08/28 18:00:17;;;;;;;6.50;1.45;;;;;;;22.21;57.60;96155.16;10403265;28;20033;-29
2023/08/28 18:05:17;;;;;;;7.13;1.38;;;;;;;22.31;57.68;96168.53;10408652;28;20037;-29
2023/08/28 18:10:17;;;;;;;13.67;1.80;;;;;;;22.30;58.06;96167.69;10410532;28;20087;-29
2023/08/28 18:15:18;;;;;;;4.63;1.37;;;;;;;22.29;57.78;96173.66;10408818;28;20053;-29
2023/08/28 18:20:19;;;;;;;5.37;1.33;;;;;;;22.30;57.58;96177.06;10410205;28;20099;-27
2023/08/28 18:25:21;;;;;;;2.90;1.40;;;;;;;22.31;57.30;96182.09;10403840;28;20065;-29
2023/08/28 18:30:25;;;;;;;2.38;1.30;;;;;;;22.32;57.68;96196.53;10411027;28;20572;-29
2023/08/28 18:35:26;;;;;;;4.95;1.05;;;;;;;22.31;57.01;96196.59;10427288;28;20041;-29
2023/08/28 18:40:26;;;;;;;4.50;1.17;;;;;;;22.26;57.36;96204.34;10414910;28;20089;-29
2023/08/28 18:45:27;;;;;;;4.10;1.30;;;;;;;22.29;57.40;96214.47;10422448;28;20037;-29
2023/08/28 18:50:27;;;;;;;7.80;1.00;;;;;;;22.29;56.96;96219.56;10430877;28;20298;-28
2023/08/28 18:55:27;;;;;;;3.87;1.30;;;;;;;22.23;56.92;96208.69;10432432;28;20046;-29
2023/08/28 19:00:28;;;;;;;5.23;2.10;;;;;;;22.27;57.02;96221.31;10423718;28;20480;-28
2023/08/28 19:05:30;;;;;;;2.80;1.00;;;;;;;22.25;57.11;96228.19;10409227;28;20400;-29
2023/08/28 19:10:31;;;;;;;4.13;1.30;;;;;;;22.24;56.96;96226.47;10420909;28;20486;-30
2023/08/28 19:15:31;;;;;;;6.53;1.40;;;;;;;22.25;57.18;96228.19;10412295;28;20029;-29
2023/08/28 19:20:32;;;;;;;3.33;0.85;;;;;;;22.20;57.24;96224.03;10404728;28;20143;-29
2023/08/28 19:25:32;;;;;;;5.25;1.15;;;;;;;22.18;57.25;96225.78;10398373;28;20041;-29
2023/08/28 19:30:33;;;;;;;5.00;1.27;;;;;;;22.15;57.16;96226.69;10424017;28;20045;-29
2023/08/28 19:35:33;;;;;;;3.30;1.23;;;;;;;22.16;57.16;96223.25;10425819;28;20094;-29
2023/08/28 19:40:33;;;;;;;4.27;1.10;;;;;;;22.16;56.89;96217.34;10432807;28;20685;-29
2023/08/28 19:45:34;;;;;;;2.23;1.03;;;;;;;22.14;57.13;96208.88;10402781;28;20288;-28
2023/08/28 19:50:34;;;;;;;1.00;0.60;;;;;;;22.01;57.15;96208.31;10421851;28;20036;-29
2023/08/28 19:55:35;;;;;;;3.00;1.43;;;;;;;22.00;57.35;96213.44;10424895;28;20021;-29
2023/08/28 20:00:35;;;;;;;2.97;0.85;;;;;;;22.02;57.19;96204.91;10417986;28;20036;-29
2023/08/28 20:05:35;;;;;;;6.37;1.97;;;;;;;21.95;57.35;96198.25;10402616;28;20527;-28
2023/08/28 20:10:36;;;;;;;1.85;0.75;;;;;;;21.98;57.23;96203.25;10404149;28;20403;-29
2023/08/28 20:15:36;;;;;;;2.70;1.07;;;;;;;22.04;57.59;96192.09;10412597;28;20438;-29
2023/08/28 20:20:37;;;;;;;0.70;0.60;;;;;;;22.15;57.37;96190.97;10407782;28;20420;-29
2023/08/28 20:25:37;;;;;;;2.80;0.80;;;;;;;22.13;57.45;96174.88;10412990;28;20033;-29
2023/08/28 20:30:38;;;;;;;1.60;0.90;;;;;;;22.15;57.29;96165.47;10424223;28;20064;-29
2023/08/28 20:35:38;;;;;;;4.22;0.85;;;;;;;22.16;56.97;96161.25;10426148;28;20379;-28
2023/08/28 20:40:38;;;;;;;3.97;0.70;;;;;;;22.10;56.97;96177.50;10430522;28;20083;-29
2023/08/28 20:45:40;;;;;;;2.17;0.77;;;;;;;22.11;56.90;96186.84;10423795;28;20044;-29
2023/08/28 20:50:40;;;;;;;1.00;0.65;;;;;;;22.13;57.04;96192.72;10428093;28;20088;-29
2023/08/28 20:55:41;;;;;;;2.37;0.90;;;;;;;22.12;56.80;96201.25;10424787;28;20094;-29
2023/08/28 21:00:41;;;;;;;5.07;0.80;;;;;;;22.10;56.91;96208.13;10431321;28;20288;-29
2023/08/28 21:05:41;;;;;;;5.00;0.83;;;;;;;22.06;56.84;96216.69;10432612;28;20035;-29
2023/08/28 21:10:42;;;;;;;2.03;0.60;;;;;;;22.08;56.66;96211.56;10407549;28;20042;-29
2023/08/28 21:15:42;;;;;;;2.37;0.70;;;;;;;22.08;56.58;96199.63;10412340;28;20287;-28
2023/08/28 21:20:43;;;;;;;0.98;0.80;;;;;;;22.03;56.56;96175.97;10413383;28;20034;-29
2023/08/28 21:25:46;;;;;;;0.97;0.70;;;;;;;22.10;56.43;96192.81;10411604;28;20041;-29
2023/08/28 21:30:57;;;;;;;2.33;0.93;;;;;;;22.06;56.38;96185.28;10409993;28;20033;-29
2023/08/28 21:35:58;;;;;;;1.63;0.70;;;;;;;22.05;56.46;96191.25;10418970;28;20043;-28
2023/08/28 21:41:00;;;;;;;1.20;0.65;;;;;;;22.05;56.61;96192.06;10409251;28;20029;-29
2023/08/28 21:46:03;;;;;;;0.77;0.60;;;;;;;22.06;56.47;96186.09;10403490;28;20424;-29
2023/08/28 21:51:03;;;;;;;2.58;0.88;;;;;;;22.05;56.39;96170.84;10411019;28;20041;-28
2023/08/28 21:56:22;;;;;;;1.30;0.65;;;;;;;22.03;56.37;96170.88;10406141;28;20080;-29
2023/08/28 22:01:41;;;;;;;1.45;0.60;;;;;;;22.05;56.14;96161.47;10410517;28;20045;-29
2023/08/28 22:07:03;;;;;;;0.95;0.70;;;;;;;22.05;55.92;96158.09;10403164;28;20447;-28
2023/08/28 22:12:19;;;;;;;0.90;0.70;;;;;;;22.04;55.78;96162.34;10407592;28;20034;-29
2023/08/28 22:17:19;;;;;;;1.27;0.63;;;;;;;22.04;55.99;96172.56;10407179;28;20037;-28
2023/08/28 22:22:19;;;;;;;0.90;0.67;;;;;;;22.03;55.96;96175.13;10410085;28;20279;-29
2023/08/28 22:27:20;;;;;;;0.53;0.53;;;;;;;22.03;55.92;96173.44;10405001;28;20357;-29
2023/08/28 22:32:20;;;;;;;1.17;0.70;;;;;;;22.02;55.94;96169.19;10406749;28;20491;-28
2023/08/28 22:37:21;;;;;;;0.88;0.52;;;;;;;22.00;56.00;96160.75;10407399;28;20626;-29
2023/08/28 22:42:21;;;;;;;0.60;0.50;;;;;;;22.01;56.05;96159.88;10401107;28;20503;-29
2023/08/28 22:47:21;;;;;;;1.00;0.63;;;;;;;22.01;55.92;96148.84;10412699;28;20501;-28
2023/08/28 22:52:22;;;;;;;2.40;1.37;;;;;;;21.99;56.03;96156.50;10401888;28;20034;-29
2023/08/28 22:57:22;;;;;;;1.00;0.68;;;;;;;21.97;55.93;96153.16;10406772;28;20344;-30
2023/08/28 23:02:23;;;;;;;1.47;0.50;;;;;;;21.95;56.08;96131.97;10405545;28;20124;-29
2023/08/28 23:07:23;;;;;;;3.13;0.70;;;;;;;21.98;55.80;96131.06;10399678;28;20461;-29
2023/08/28 23:12:24;;;;;;;0.75;0.60;;;;;;;21.98;55.75;96126.78;10408145;28;20025;-28
2023/08/28 23:17:24;;;;;;;1.33;0.68;;;;;;;21.98;55.79;96133.63;10408110;28;20021;-28
2023/08/28 23:22:25;;;;;;;2.63;0.70;;;;;;;21.95;55.83;96126.88;10413120;28;20033;-28